Time;durP1;ratioP1;P1;durP2;ratioP2;P2;SDS_P1;SDS_P2;PMS_P1;PMS_P2;Temp;Humidity;BMP_temperature;BMP_pressure;BME280_temperature;BME280_humidity;BME280_pressure;Samples;Min_cycle;Max_cycle;Signal;HPM_P1;HPM_P2
2024/03/02 00:01:41;;;;;;;49.50;39.43;;;10.20;99.90;;;;;;4799081;29;20195;-48
2024/03/02 00:04:08;;;;;;;53.80;38.87;;;10.20;99.90;;;;;;4795418;29;20194;-51
2024/03/02 00:06:34;;;;;;;51.87;42.50;;;10.20;99.90;;;;;;4801339;29;20578;-47
2024/03/02 00:08:59;;;;;;;51.03;41.20;;;10.20;99.90;;;;;;4796748;29;20514;-52
2024/03/02 00:11:25;;;;;;;50.77;41.20;;;10.20;99.90;;;;;;4795547;29;20592;-51
2024/03/02 00:13:53;;;;;;;50.37;39.67;;;10.20;99.90;;;;;;4798438;29;20203;-48
2024/03/02 00:16:19;;;;;;;47.50;39.70;;;10.20;99.90;;;;;;4803552;29;20185;-57
2024/03/02 00:18:46;;;;;;;50.53;40.40;;;10.30;99.90;;;;;;4797437;29;20452;-57
2024/03/02 00:21:13;;;;;;;53.73;41.43;;;10.30;99.90;;;;;;4800691;29;21013;-58
2024/03/02 00:23:39;;;;;;;51.60;41.37;;;10.30;99.90;;;;;;4795034;29;20432;-58
2024/03/02 00:26:05;;;;;;;50.60;39.40;;;10.20;99.90;;;;;;4798843;29;21366;-56
2024/03/02 00:28:35;;;;;;;50.27;42.50;;;10.30;99.90;;;;;;4797106;29;20443;-56
2024/03/02 00:31:08;;;;;;;51.17;40.57;;;10.30;99.90;;;;;;4800726;29;20451;-55
2024/03/02 00:33:36;;;;;;;50.53;42.20;;;10.30;99.90;;;;;;4802508;29;20506;-56
2024/03/02 00:36:06;;;;;;;48.00;40.90;;;10.30;99.90;;;;;;4800756;29;20448;-55
2024/03/02 00:38:33;;;;;;;50.27;40.30;;;10.30;99.90;;;;;;4802045;29;20523;-57
2024/03/02 00:41:04;;;;;;;50.67;40.97;;;10.30;99.90;;;;;;4805725;29;20502;-49
2024/03/02 00:43:43;;;;;;;52.23;40.40;;;10.30;99.90;;;;;;4801752;29;20447;-56
2024/03/02 00:46:12;;;;;;;55.03;40.47;;;10.30;99.90;;;;;;4799023;29;20450;-56
2024/03/02 00:48:38;;;;;;;49.40;39.73;;;10.30;99.90;;;;;;4800678;29;20491;-57
2024/03/02 00:51:04;;;;;;;51.17;42.20;;;10.30;99.90;;;;;;4800023;29;20455;-56
2024/03/02 00:53:32;;;;;;;53.73;42.80;;;10.30;99.90;;;;;;4797407;29;20587;-56
2024/03/02 00:55:58;;;;;;;57.07;43.47;;;10.30;99.90;;;;;;4802764;29;20459;-50
2024/03/02 00:58:24;;;;;;;56.53;42.07;;;10.30;99.90;;;;;;4800274;29;20465;-47
2024/03/02 01:00:50;;;;;;;53.13;41.27;;;10.30;99.90;;;;;;4798705;29;20444;-47
2024/03/02 01:03:15;;;;;;;53.53;39.63;;;10.30;99.90;;;;;;4802582;29;20561;-49
2024/03/02 01:05:42;;;;;;;49.47;40.00;;;10.30;99.90;;;;;;4802332;29;20234;-46
2024/03/02 01:08:08;;;;;;;49.17;39.80;;;10.40;99.90;;;;;;4802437;29;20200;-48
2024/03/02 01:10:34;;;;;;;52.77;39.73;;;10.30;99.90;;;;;;4803581;29;20475;-51
2024/03/02 01:13:00;;;;;;;52.60;39.90;;;10.40;99.90;;;;;;4803526;29;20984;-44
2024/03/02 01:15:25;;;;;;;54.67;41.10;;;10.40;99.90;;;;;;4800504;29;20259;-50
2024/03/02 01:17:51;;;;;;;50.00;39.40;;;10.30;99.90;;;;;;4797387;29;20190;-48
2024/03/02 01:20:17;;;;;;;46.80;37.40;;;10.40;99.90;;;;;;4797439;29;20286;-48
2024/03/02 01:22:42;;;;;;;48.93;39.00;;;10.40;99.90;;;;;;4797104;29;20191;-52
2024/03/02 01:25:09;;;;;;;48.07;39.43;;;10.40;99.90;;;;;;4797189;29;20194;-45
2024/03/02 01:27:34;;;;;;;52.03;40.87;;;10.30;99.90;;;;;;4804640;29;20209;-47
2024/03/02 01:30:00;;;;;;;54.70;40.10;;;10.30;99.90;;;;;;4824759;29;20443;-49
2024/03/02 01:32:26;;;;;;;50.07;41.03;;;10.30;99.90;;;;;;4796953;29;20252;-50
2024/03/02 01:34:51;;;;;;;53.00;39.10;;;10.20;99.90;;;;;;4799104;29;20187;-51
2024/03/02 01:37:17;;;;;;;50.50;40.47;;;10.30;99.90;;;;;;4796372;29;20214;-51
2024/03/02 01:39:42;;;;;;;48.33;39.40;;;10.30;99.90;;;;;;4797093;29;20186;-46
2024/03/02 01:42:08;;;;;;;50.77;39.70;;;10.20;99.90;;;;;;4796410;29;20202;-50
2024/03/02 01:44:34;;;;;;;54.83;39.90;;;10.20;99.90;;;;;;4797611;29;20736;-47
2024/03/02 01:46:59;;;;;;;51.27;41.00;;;10.30;99.90;;;;;;4797609;29;20194;-51
2024/03/02 01:49:25;;;;;;;60.43;41.70;;;10.30;99.90;;;;;;4796631;29;20203;-51
2024/03/02 01:51:51;;;;;;;51.77;38.73;;;10.30;99.90;;;;;;4796922;29;20225;-49
2024/03/02 01:54:16;;;;;;;50.90;40.30;;;10.30;99.90;;;;;;4796521;29;20191;-51
2024/03/02 01:56:42;;;;;;;53.57;41.10;;;10.40;99.90;;;;;;4798475;29;21339;-52
2024/03/02 01:59:08;;;;;;;54.53;41.40;;;10.30;99.90;;;;;;4812478;29;20195;-51
2024/03/02 02:01:34;;;;;;;53.50;39.67;;;10.30;99.90;;;;;;4800694;29;20190;-48
2024/03/02 02:04:00;;;;;;;53.20;40.07;;;10.30;99.90;;;;;;4796146;29;20198;-50
2024/03/02 02:06:26;;;;;;;46.00;38.07;;;10.30;99.90;;;;;;4798724;29;20512;-47
2024/03/02 02:08:51;;;;;;;53.20;40.70;;;10.30;99.90;;;;;;4796120;29;20901;-49
2024/03/02 02:11:17;;;;;;;49.07;38.60;;;10.30;99.90;;;;;;4801453;29;21069;-45
2024/03/02 02:13:43;;;;;;;49.50;39.40;;;10.30;99.90;;;;;;4808423;29;20699;-50
2024/03/02 02:16:09;;;;;;;52.53;38.27;;;10.30;99.90;;;;;;4799245;29;20274;-51
2024/03/02 02:18:35;;;;;;;50.20;39.17;;;10.30;99.90;;;;;;4801002;29;20201;-48
2024/03/02 02:21:01;;;;;;;56.47;39.93;;;10.30;99.90;;;;;;4800259;29;20509;-48
2024/03/02 02:23:27;;;;;;;56.23;39.20;;;10.30;99.90;;;;;;4798132;29;20802;-48
2024/03/02 02:25:53;;;;;;;54.23;38.37;;;10.30;99.90;;;;;;4800941;29;20527;-46
2024/03/02 02:28:18;;;;;;;52.67;38.53;;;10.30;99.90;;;;;;4799880;29;20717;-57
2024/03/02 02:30:44;;;;;;;58.43;41.37;;;10.30;99.90;;;;;;4795769;29;20187;-57
2024/03/02 02:33:09;;;;;;;51.20;38.20;;;10.30;99.90;;;;;;4795620;29;20221;-57
2024/03/02 02:35:35;;;;;;;54.30;39.67;;;10.40;99.90;;;;;;4795610;29;20193;-56
2024/03/02 02:38:02;;;;;;;59.43;39.10;;;10.30;99.90;;;;;;4800561;29;20247;-55
2024/03/02 02:40:31;;;;;;;55.20;40.30;;;10.40;99.90;;;;;;4798569;29;20183;-53
2024/03/02 02:42:58;;;;;;;60.20;41.53;;;10.40;99.90;;;;;;4797002;29;20451;-57
2024/03/02 02:45:24;;;;;;;56.53;39.30;;;10.40;99.90;;;;;;4795766;29;20573;-54
2024/03/02 02:47:50;;;;;;;57.30;39.77;;;10.40;99.90;;;;;;4795817;29;20480;-57
2024/03/02 02:50:16;;;;;;;56.40;39.03;;;10.40;99.90;;;;;;4795461;29;20198;-57
2024/03/02 02:52:42;;;;;;;58.83;39.60;;;10.40;99.90;;;;;;4795401;29;20657;-54
2024/03/02 02:55:10;;;;;;;51.67;37.90;;;10.40;99.90;;;;;;4798986;29;20448;-57
2024/03/02 02:57:38;;;;;;;59.67;39.03;;;10.40;99.90;;;;;;4796769;29;20535;-57
2024/03/02 03:00:10;;;;;;;55.10;38.00;;;10.40;99.90;;;;;;4795393;29;20432;-55
2024/03/02 03:02:37;;;;;;;52.87;36.70;;;10.40;99.90;;;;;;4799628;29;20556;-56
2024/03/02 03:05:03;;;;;;;58.17;38.80;;;10.40;99.90;;;;;;4800410;29;20447;-57
2024/03/02 03:07:29;;;;;;;48.73;38.70;;;10.40;99.90;;;;;;4795410;29;20883;-56
2024/03/02 03:09:54;;;;;;;52.97;39.00;;;10.40;99.90;;;;;;4794806;29;20436;-57
2024/03/02 03:12:20;;;;;;;55.10;37.77;;;10.40;99.90;;;;;;4799771;29;20224;-57
2024/03/02 03:14:46;;;;;;;52.60;37.10;;;10.40;99.90;;;;;;4797710;29;20191;-57
2024/03/02 03:17:11;;;;;;;54.60;37.53;;;10.40;99.90;;;;;;4798690;29;20202;-55
2024/03/02 03:19:38;;;;;;;50.00;37.20;;;10.40;99.90;;;;;;4799689;29;20239;-56
2024/03/02 03:22:04;;;;;;;62.13;39.67;;;10.30;99.90;;;;;;4807372;29;20230;-58
2024/03/02 03:24:30;;;;;;;58.33;38.40;;;10.30;99.90;;;;;;4800368;29;20584;-56
2024/03/02 03:26:55;;;;;;;59.10;38.87;;;10.30;99.90;;;;;;4793591;29;20459;-50
2024/03/02 03:29:21;;;;;;;59.17;38.50;;;10.30;99.90;;;;;;4798051;29;20204;-50
2024/03/02 03:31:46;;;;;;;59.20;38.50;;;10.30;99.90;;;;;;4796374;29;20291;-52
2024/03/02 03:34:15;;;;;;;56.03;38.00;;;10.30;99.90;;;;;;4802460;29;20186;-51
2024/03/02 03:36:41;;;;;;;57.23;38.57;;;10.30;99.90;;;;;;4797643;29;20708;-50
2024/03/02 03:39:07;;;;;;;62.00;39.70;;;10.30;99.90;;;;;;4822312;29;20483;-48
2024/03/02 03:41:33;;;;;;;54.67;39.10;;;10.30;99.90;;;;;;4802260;29;20529;-49
2024/03/02 03:43:58;;;;;;;56.43;38.00;;;10.30;99.90;;;;;;4795475;29;20187;-47
2024/03/02 03:46:24;;;;;;;59.50;38.60;;;10.30;99.90;;;;;;4800837;29;20200;-50
2024/03/02 03:48:49;;;;;;;55.07;39.13;;;10.20;99.90;;;;;;4797545;29;20273;-49
2024/03/02 03:51:15;;;;;;;60.53;38.97;;;10.20;99.90;;;;;;4801532;29;20193;-47
2024/03/02 03:53:40;;;;;;;61.77;39.20;;;10.20;99.90;;;;;;4794281;29;20245;-51
2024/03/02 03:56:06;;;;;;;56.07;39.27;;;10.10;99.90;;;;;;4794289;29;20206;-49
2024/03/02 03:58:32;;;;;;;57.40;37.47;;;10.10;99.90;;;;;;4794979;29;20559;-50
2024/03/02 04:00:57;;;;;;;60.43;38.10;;;10.10;99.90;;;;;;4794709;29;20977;-48
2024/03/02 04:03:23;;;;;;;67.90;39.50;;;10.10;99.90;;;;;;4795061;29;20266;-46
2024/03/02 04:05:48;;;;;;;68.90;41.93;;;10.10;99.90;;;;;;4793928;29;20234;-51
2024/03/02 04:08:14;;;;;;;59.83;39.03;;;10.00;99.90;;;;;;4799028;29;20576;-46
2024/03/02 04:10:41;;;;;;;63.27;37.60;;;10.00;99.90;;;;;;4796702;29;20192;-46
2024/03/02 04:13:07;;;;;;;65.20;40.00;;;10.00;99.90;;;;;;4794255;29;20217;-47
2024/03/02 04:15:33;;;;;;;61.90;40.70;;;10.00;99.90;;;;;;4795202;29;20444;-47
2024/03/02 04:17:58;;;;;;;62.50;39.40;;;10.00;99.90;;;;;;4801244;29;20708;-49
2024/03/02 04:20:25;;;;;;;57.50;39.13;;;10.00;99.90;;;;;;4801949;29;20218;-52
2024/03/02 04:22:50;;;;;;;64.90;39.90;;;10.10;99.90;;;;;;4798055;29;20201;-48
2024/03/02 04:25:16;;;;;;;57.23;39.20;;;10.10;99.90;;;;;;4797170;29;20509;-49
2024/03/02 04:27:42;;;;;;;57.70;39.67;;;10.10;99.90;;;;;;4802506;29;20242;-49
2024/03/02 04:30:08;;;;;;;61.30;39.97;;;10.10;99.90;;;;;;4798615;29;20543;-50
2024/03/02 04:32:34;;;;;;;61.57;37.50;;;10.10;99.90;;;;;;4799324;29;20202;-51
2024/03/02 04:34:59;;;;;;;55.87;38.87;;;10.00;99.90;;;;;;4810805;29;20446;-49
2024/03/02 04:37:25;;;;;;;60.37;39.40;;;10.00;99.90;;;;;;4794035;29;20440;-45
2024/03/02 04:39:50;;;;;;;56.47;39.53;;;10.00;99.90;;;;;;4798537;29;20222;-49
2024/03/02 04:42:16;;;;;;;60.03;38.10;;;10.00;99.90;;;;;;4800191;29;20182;-50
2024/03/02 04:44:42;;;;;;;59.40;37.90;;;10.00;99.90;;;;;;4800769;29;20194;-45
2024/03/02 04:47:07;;;;;;;54.87;36.97;;;9.90;99.90;;;;;;4802918;29;20197;-51
2024/03/02 04:49:33;;;;;;;58.47;38.27;;;9.90;99.90;;;;;;4805268;29;20589;-45
2024/03/02 04:51:59;;;;;;;62.40;39.47;;;9.90;99.90;;;;;;4799569;29;20279;-47
2024/03/02 04:54:24;;;;;;;58.23;38.13;;;9.90;99.90;;;;;;4797594;29;20238;-50
2024/03/02 04:56:50;;;;;;;61.33;39.80;;;9.90;99.90;;;;;;4797465;29;20199;-46
2024/03/02 04:59:19;;;;;;;56.80;37.57;;;9.90;99.90;;;;;;4797126;29;20448;-47
2024/03/02 05:01:45;;;;;;;54.70;36.17;;;9.90;99.90;;;;;;4797858;29;20182;-47
2024/03/02 05:04:12;;;;;;;58.93;36.90;;;9.90;99.90;;;;;;4800956;29;20465;-49
2024/03/02 05:06:40;;;;;;;57.63;38.03;;;9.90;99.90;;;;;;4800945;29;20480;-44
2024/03/02 05:09:06;;;;;;;63.30;39.10;;;9.90;99.90;;;;;;4797694;29;21013;-47
2024/03/02 05:14:04;;;;;;;54.90;37.17;;;9.90;99.90;;;;;;4797530;29;21017;-49
2024/03/02 05:16:40;;;;;;;55.97;37.30;;;10.00;99.90;;;;;;4803217;29;20456;-44
2024/03/02 05:19:08;;;;;;;52.47;35.80;;;10.00;99.90;;;;;;4800283;29;20837;-49
2024/03/02 05:21:34;;;;;;;50.53;36.67;;;10.00;99.90;;;;;;4797595;29;20469;-50
2024/03/02 05:24:00;;;;;;;50.87;36.27;;;10.00;99.90;;;;;;4803306;29;20447;-44
2024/03/02 05:26:26;;;;;;;49.00;36.60;;;10.00;99.90;;;;;;4803696;29;20447;-47
2024/03/02 05:28:51;;;;;;;51.60;36.40;;;10.00;99.90;;;;;;4803139;29;20197;-49
2024/03/02 05:31:17;;;;;;;56.57;37.73;;;10.00;99.90;;;;;;4803230;29;20194;-47
2024/03/02 05:33:43;;;;;;;48.47;36.43;;;10.00;99.90;;;;;;4804389;29;20987;-51
2024/03/02 05:36:09;;;;;;;53.10;36.70;;;10.00;99.90;;;;;;4798628;29;20195;-46
2024/03/02 05:38:37;;;;;;;53.80;35.30;;;10.00;99.90;;;;;;4796715;29;20837;-46
2024/03/02 05:41:03;;;;;;;45.30;34.17;;;10.00;99.90;;;;;;4799386;29;20617;-46
2024/03/02 05:43:29;;;;;;;49.10;36.13;;;10.10;99.90;;;;;;4796851;29;20462;-50
2024/03/02 05:45:54;;;;;;;50.60;36.60;;;10.10;99.90;;;;;;4797070;29;20488;-46
2024/03/02 05:48:20;;;;;;;52.70;35.07;;;10.10;99.90;;;;;;4796562;29;20259;-47
2024/03/02 05:50:45;;;;;;;50.63;36.57;;;10.10;99.90;;;;;;4797276;29;20661;-49
2024/03/02 05:53:11;;;;;;;44.40;35.73;;;10.10;99.90;;;;;;4797832;29;20274;-46
2024/03/02 05:55:37;;;;;;;50.47;35.00;;;10.10;99.90;;;;;;4806825;29;20232;-51
2024/03/02 06:00:31;;;;;;;52.50;37.77;;;10.20;99.90;;;;;;4803143;29;20242;-48
2024/03/02 06:02:56;;;;;;;48.73;37.10;;;10.20;99.90;;;;;;4797260;29;20443;-46
2024/03/02 06:05:22;;;;;;;49.67;37.70;;;10.10;99.90;;;;;;4796023;29;21551;-44
2024/03/02 06:07:47;;;;;;;53.57;38.40;;;10.10;99.90;;;;;;4796568;29;20278;-52
2024/03/02 06:10:14;;;;;;;50.00;37.07;;;10.20;99.90;;;;;;4796357;29;20198;-48
2024/03/02 06:12:40;;;;;;;53.13;37.87;;;10.20;99.90;;;;;;4797857;29;20241;-49
2024/03/02 06:15:06;;;;;;;54.20;37.97;;;10.20;99.90;;;;;;4798951;29;20551;-48
2024/03/02 06:17:31;;;;;;;57.00;38.93;;;10.10;99.90;;;;;;4798109;29;20527;-51
2024/03/02 06:19:57;;;;;;;54.90;38.00;;;10.10;99.90;;;;;;4797595;29;20448;-46
2024/03/02 06:22:24;;;;;;;50.03;37.10;;;10.10;99.90;;;;;;4801330;29;20198;-49
2024/03/02 06:24:50;;;;;;;48.40;36.03;;;10.20;99.90;;;;;;4802027;29;20823;-49
2024/03/02 06:27:16;;;;;;;52.70;37.00;;;10.10;99.90;;;;;;4803776;29;20479;-45
2024/03/02 06:29:42;;;;;;;54.47;37.97;;;10.10;99.90;;;;;;4799571;29;20632;-50
2024/03/02 06:32:08;;;;;;;46.63;36.13;;;10.10;99.90;;;;;;4802108;29;20693;-57
2024/03/02 06:34:33;;;;;;;51.70;37.53;;;10.10;99.90;;;;;;4798018;29;20451;-57
2024/03/02 06:36:59;;;;;;;56.57;37.73;;;10.10;99.90;;;;;;4801224;29;20227;-56
2024/03/02 06:39:25;;;;;;;52.87;37.80;;;10.10;99.90;;;;;;4803725;29;20227;-48
2024/03/02 06:41:51;;;;;;;48.93;37.40;;;10.10;99.90;;;;;;4795494;29;20183;-49
2024/03/02 06:44:18;;;;;;;51.80;36.17;;;10.10;99.90;;;;;;4796819;29;20436;-45
2024/03/02 06:46:44;;;;;;;55.53;38.33;;;10.10;99.90;;;;;;4799166;29;20923;-48
2024/03/02 06:49:11;;;;;;;51.53;37.00;;;10.10;99.90;;;;;;4794715;29;20455;-49
2024/03/02 06:51:37;;;;;;;56.30;38.10;;;10.00;99.90;;;;;;4795106;29;20194;-49
2024/03/02 06:54:02;;;;;;;52.17;35.87;;;10.10;99.90;;;;;;4799738;29;21027;-55
2024/03/02 06:56:28;;;;;;;51.60;36.33;;;10.00;99.90;;;;;;4796363;29;20475;-46
2024/03/02 06:58:53;;;;;;;56.10;38.70;;;10.00;99.90;;;;;;4802930;29;20297;-48
2024/03/02 07:01:22;;;;;;;53.70;36.50;;;10.10;99.90;;;;;;4796571;29;20203;-53
2024/03/02 07:03:49;;;;;;;52.63;36.07;;;10.00;99.90;;;;;;4804910;29;20189;-47
2024/03/02 07:06:15;;;;;;;50.17;37.10;;;10.00;99.90;;;;;;4822132;29;20483;-47
2024/03/02 07:08:40;;;;;;;50.80;37.50;;;10.00;99.90;;;;;;4797499;29;20450;-50
2024/03/02 07:11:06;;;;;;;52.20;36.63;;;10.00;99.90;;;;;;4797671;29;20673;-47
2024/03/02 07:13:32;;;;;;;55.67;38.43;;;10.10;99.90;;;;;;4796848;29;20629;-46
2024/03/02 07:18:30;;;;;;;52.67;36.77;;;10.20;99.90;;;;;;4797775;29;20187;-49
2024/03/02 07:20:59;;;;;;;56.93;37.73;;;10.10;99.90;;;;;;4799971;29;20539;-48
2024/03/02 07:23:27;;;;;;;49.30;37.27;;;10.10;99.90;;;;;;4799373;29;21240;-50
2024/03/02 07:25:56;;;;;;;53.60;38.10;;;10.20;99.90;;;;;;4806442;29;20444;-47
2024/03/02 07:28:22;;;;;;;58.70;38.63;;;10.20;99.90;;;;;;4798276;29;20448;-47
2024/03/02 07:30:58;;;;;;;55.70;36.70;;;10.20;99.90;;;;;;4803288;29;20767;-46
2024/03/02 07:33:24;;;;;;;51.90;36.90;;;10.20;99.90;;;;;;4802915;29;20468;-55
2024/03/02 07:35:49;;;;;;;59.70;39.10;;;10.30;99.90;;;;;;4803018;29;20497;-55
2024/03/02 07:38:15;;;;;;;54.13;37.80;;;10.30;99.90;;;;;;4798079;29;20201;-49
2024/03/02 07:40:42;;;;;;;60.07;40.27;;;10.30;99.90;;;;;;4796783;29;20200;-48
2024/03/02 07:43:08;;;;;;;54.50;38.90;;;10.40;99.90;;;;;;4801064;29;20640;-50
2024/03/02 07:45:36;;;;;;;54.50;37.30;;;10.40;99.90;;;;;;4798320;29;20439;-45
2024/03/02 07:48:03;;;;;;;55.10;38.00;;;10.40;99.90;;;;;;4805427;29;20489;-49
2024/03/02 07:50:30;;;;;;;54.17;37.13;;;10.40;99.90;;;;;;4797842;29;20447;-50
2024/03/02 07:52:55;;;;;;;53.83;38.83;;;10.50;99.90;;;;;;4799267;29;20986;-45
2024/03/02 07:55:23;;;;;;;58.10;38.10;;;10.40;99.90;;;;;;4798115;29;20450;-49
2024/03/02 07:57:49;;;;;;;54.90;37.13;;;10.40;99.90;;;;;;4799841;29;20171;-50
2024/03/02 08:00:15;;;;;;;58.30;35.90;;;10.40;99.90;;;;;;4802787;29;20439;-46
2024/03/02 08:02:42;;;;;;;53.63;36.17;;;10.50;99.90;;;;;;4807023;29;20440;-57
2024/03/02 08:05:09;;;;;;;55.80;36.57;;;10.50;99.90;;;;;;4797015;29;20447;-51
2024/03/02 08:07:36;;;;;;;53.80;34.97;;;10.50;99.90;;;;;;4796254;29;20453;-50
2024/03/02 08:10:01;;;;;;;47.83;33.60;;;10.50;99.90;;;;;;4799233;29;20811;-56
2024/03/02 08:12:27;;;;;;;52.17;35.37;;;10.50;99.90;;;;;;4802031;29;20210;-56
2024/03/02 08:14:52;;;;;;;45.90;34.10;;;10.50;99.90;;;;;;4801023;29;20198;-58
2024/03/02 08:17:18;;;;;;;48.30;33.33;;;10.50;99.90;;;;;;4802480;29;20194;-53
2024/03/02 08:19:46;;;;;;;39.10;31.50;;;10.50;99.90;;;;;;4803989;29;20273;-55
2024/03/02 08:22:11;;;;;;;45.87;33.53;;;10.50;99.90;;;;;;4800019;29;20383;-57
2024/03/02 08:24:37;;;;;;;42.40;31.20;;;10.50;99.90;;;;;;4811796;29;20428;-45
2024/03/02 08:27:03;;;;;;;49.60;33.00;;;10.50;99.90;;;;;;4806141;29;20571;-53
2024/03/02 08:29:29;;;;;;;41.17;30.53;;;10.60;99.90;;;;;;4801997;29;20959;-48
2024/03/02 08:31:55;;;;;;;42.47;30.90;;;10.60;99.90;;;;;;4804601;29;20469;-50
2024/03/02 08:34:21;;;;;;;48.73;32.33;;;10.60;99.90;;;;;;4804999;29;20446;-50
2024/03/02 08:36:47;;;;;;;42.63;29.60;;;10.60;99.90;;;;;;4803945;29;20273;-54
2024/03/02 08:39:15;;;;;;;42.40;30.27;;;10.70;99.90;;;;;;4812350;29;20537;-51
2024/03/02 08:41:49;;;;;;;40.50;30.37;;;10.60;99.90;;;;;;4804393;29;20193;-50
2024/03/02 08:44:15;;;;;;;42.37;29.63;;;10.60;99.90;;;;;;4810126;29;20450;-48
2024/03/02 08:46:41;;;;;;;41.17;31.50;;;10.70;99.90;;;;;;4809603;29;20419;-46
2024/03/02 08:49:07;;;;;;;37.77;30.23;;;10.70;99.90;;;;;;4814811;29;20229;-47
2024/03/02 08:51:33;;;;;;;49.60;30.50;;;10.80;99.90;;;;;;4803955;29;20278;-52
2024/03/02 08:53:59;;;;;;;39.70;28.90;;;10.80;99.90;;;;;;4811526;29;20222;-52
2024/03/02 08:56:25;;;;;;;41.90;30.93;;;10.90;99.90;;;;;;4810766;29;20447;-49
2024/03/02 08:58:51;;;;;;;41.20;30.93;;;11.00;99.90;;;;;;4811255;29;20415;-51
2024/03/02 09:01:18;;;;;;;44.70;30.77;;;11.10;99.90;;;;;;4813094;29;20506;-50
2024/03/02 09:03:44;;;;;;;41.57;30.77;;;11.20;99.90;;;;;;4808828;29;20531;-51
2024/03/02 09:06:10;;;;;;;33.63;29.20;;;11.40;99.90;;;;;;4805456;29;20469;-46
2024/03/02 09:08:36;;;;;;;42.57;30.10;;;11.50;99.90;;;;;;4804468;29;20445;-50
2024/03/02 09:11:03;;;;;;;35.53;29.27;;;11.70;99.90;;;;;;4812201;29;20870;-48
2024/03/02 09:13:29;;;;;;;41.57;29.60;;;11.80;99.90;;;;;;4798879;29;20301;-53
2024/03/02 09:15:55;;;;;;;42.30;32.43;;;11.90;99.90;;;;;;4802594;29;20435;-47
2024/03/02 09:18:20;;;;;;;40.00;30.43;;;12.00;99.90;;;;;;4803931;29;20416;-49
2024/03/02 09:20:46;;;;;;;41.30;31.30;;;12.00;99.90;;;;;;4810481;29;20190;-49
2024/03/02 09:23:12;;;;;;;41.40;30.00;;;12.10;99.90;;;;;;4809657;29;20189;-48
2024/03/02 09:25:37;;;;;;;40.83;31.03;;;12.30;99.90;;;;;;4812534;29;20198;-54
2024/03/02 09:28:03;;;;;;;41.60;30.57;;;12.40;99.90;;;;;;4812036;29;20277;-47
2024/03/02 09:30:29;;;;;;;42.80;30.93;;;12.50;99.90;;;;;;4804038;29;20289;-49
2024/03/02 09:32:54;;;;;;;38.23;29.50;;;12.50;99.90;;;;;;4811974;29;20495;-52
2024/03/02 09:35:20;;;;;;;42.07;31.23;;;12.50;99.90;;;;;;4810082;29;20257;-48
2024/03/02 09:37:46;;;;;;;39.90;31.40;;;12.50;99.90;;;;;;4802401;29;20429;-51
2024/03/02 09:40:12;;;;;;;41.07;30.83;;;12.40;99.90;;;;;;4826945;29;20205;-49
2024/03/02 09:42:39;;;;;;;44.73;31.30;;;12.40;99.90;;;;;;4806753;29;20538;-50
2024/03/02 09:45:06;;;;;;;42.10;30.90;;;12.40;99.90;;;;;;4809215;29;20439;-49
2024/03/02 09:47:32;;;;;;;42.23;30.60;;;12.30;99.90;;;;;;4803181;29;21360;-45
2024/03/02 09:49:57;;;;;;;35.63;29.43;;;12.20;99.90;;;;;;4808799;29;20427;-51
2024/03/02 09:52:24;;;;;;;40.63;29.83;;;12.10;99.90;;;;;;4809167;29;20233;-49
2024/03/02 09:54:50;;;;;;;38.03;29.13;;;12.00;99.90;;;;;;4809051;29;20435;-48
2024/03/02 09:57:15;;;;;;;37.50;29.47;;;12.00;99.90;;;;;;4811160;29;20302;-51
2024/03/02 09:59:41;;;;;;;41.20;30.67;;;11.90;99.90;;;;;;4823797;29;20191;-50
2024/03/02 10:02:07;;;;;;;36.20;28.93;;;11.90;99.90;;;;;;4804804;29;20202;-46
2024/03/02 10:04:35;;;;;;;40.40;30.90;;;11.90;99.90;;;;;;4805272;29;21292;-48
2024/03/02 10:07:20;;;;;;;37.60;29.30;;;11.80;99.90;;;;;;4806223;29;20519;-51
2024/03/02 10:09:47;;;;;;;39.53;29.80;;;11.80;99.90;;;;;;4807304;29;20503;-48
2024/03/02 10:12:17;;;;;;;44.43;29.70;;;11.70;99.90;;;;;;4798314;29;20482;-47
2024/03/02 10:14:43;;;;;;;37.10;27.43;;;11.70;99.90;;;;;;4807257;29;20424;-49
2024/03/02 10:17:13;;;;;;;39.47;29.30;;;11.80;99.90;;;;;;4797592;29;20902;-47
2024/03/02 10:19:39;;;;;;;43.27;29.73;;;11.90;99.90;;;;;;4799722;29;20452;-46
2024/03/02 10:22:07;;;;;;;46.87;31.10;;;12.00;99.90;;;;;;4810874;29;20435;-44
2024/03/02 10:24:41;;;;;;;42.07;30.30;;;12.10;99.90;;;;;;4797657;29;20439;-46
2024/03/02 10:27:08;;;;;;;44.10;29.50;;;12.20;99.90;;;;;;4809502;29;20447;-45
2024/03/02 10:29:37;;;;;;;37.60;29.97;;;12.30;99.90;;;;;;4808763;29;20914;-43
2024/03/02 10:32:03;;;;;;;42.03;33.47;;;12.50;99.90;;;;;;4804992;29;20966;-41
2024/03/02 10:34:29;;;;;;;35.77;28.57;;;12.80;99.90;;;;;;4809166;29;20493;-43
2024/03/02 10:36:55;;;;;;;36.43;29.63;;;13.00;99.90;;;;;;4808913;29;20443;-49
2024/03/02 10:39:21;;;;;;;36.70;28.40;;;13.40;99.90;;;;;;4805752;29;20351;-47
2024/03/02 10:41:51;;;;;;;35.23;28.80;;;14.10;99.90;;;;;;4809487;29;20427;-46
2024/03/02 10:44:18;;;;;;;33.00;26.43;;;14.60;99.90;;;;;;4810610;29;20284;-47
2024/03/02 10:46:47;;;;;;;34.43;28.53;;;15.00;99.90;;;;;;4806575;29;20435;-43
2024/03/02 10:49:12;;;;;;;34.43;27.77;;;15.60;99.90;;;;;;4802442;29;20454;-44
2024/03/02 10:51:38;;;;;;;26.90;24.00;;;16.40;99.90;;;;;;4800377;29;20443;-43
2024/03/02 10:54:04;;;;;;;30.33;25.43;;;16.90;94.70;;;;;;4822144;29;20214;-44
2024/03/02 10:56:40;;;;;;;29.77;26.53;;;17.20;93.20;;;;;;4798915;29;20186;-46
2024/03/02 10:59:11;;;;;;;29.30;24.90;;;18.10;90.60;;;;;;4800772;29;20498;-43
2024/03/02 11:01:39;;;;;;;27.10;24.40;;;19.00;84.20;;;;;;4798988;29;20443;-44
2024/03/02 11:04:09;;;;;;;27.10;24.10;;;19.10;79.90;;;;;;4805938;29;20435;-43
2024/03/02 11:06:38;;;;;;;25.70;23.20;;;19.50;76.90;;;;;;4802939;29;20471;-57
2024/03/02 11:09:08;;;;;;;22.30;20.27;;;20.10;75.20;;;;;;4807710;29;20447;-55
2024/03/02 11:11:40;;;;;;;22.27;20.17;;;20.60;63.50;;;;;;4807147;29;20444;-56
2024/03/02 11:14:11;;;;;;;24.30;21.90;;;20.80;59.80;;;;;;4803887;29;20483;-56
2024/03/02 11:16:41;;;;;;;23.27;21.20;;;20.10;60.10;;;;;;4802406;29;20436;-58
2024/03/02 11:19:12;;;;;;;20.90;19.20;;;20.00;59.60;;;;;;4805297;29;20455;-59
2024/03/02 11:21:40;;;;;;;18.43;16.93;;;20.50;58.50;;;;;;4830633;29;20551;-56
2024/03/02 11:24:25;;;;;;;20.00;18.47;;;19.40;56.50;;;;;;4823212;29;20459;-56
2024/03/02 11:26:51;;;;;;;19.40;18.00;;;19.20;56.40;;;;;;4802112;29;20454;-52
2024/03/02 11:29:35;;;;;;;20.57;18.87;;;18.60;58.10;;;;;;4800669;29;21308;-56
2024/03/02 11:32:02;;;;;;;21.93;19.67;;;19.40;58.90;;;;;;4797113;29;20469;-58
2024/03/02 11:34:35;;;;;;;22.10;20.13;;;19.50;58.00;;;;;;4802237;29;20920;-47
2024/03/02 11:37:04;;;;;;;22.20;20.30;;;19.70;57.50;;;;;;4811998;29;21224;-44
2024/03/02 11:39:30;;;;;;;21.63;19.63;;;19.20;58.10;;;;;;4805695;29;20439;-44
2024/03/02 11:41:59;;;;;;;22.53;20.63;;;18.80;63.00;;;;;;4804087;29;20830;-43
2024/03/02 11:44:28;;;;;;;22.10;20.00;;;18.50;63.00;;;;;;4807924;29;20466;-50
2024/03/02 11:47:00;;;;;;;22.37;20.27;;;18.30;65.20;;;;;;4802563;29;20511;-43
2024/03/02 11:49:44;;;;;;;22.80;20.67;;;18.30;66.10;;;;;;4801850;29;20448;-44
2024/03/02 11:52:11;;;;;;;22.90;20.87;;;17.80;65.20;;;;;;4804181;29;20988;-47
2024/03/02 11:54:46;;;;;;;22.30;20.27;;;17.80;69.40;;;;;;4800787;29;20431;-43
2024/03/02 11:57:12;;;;;;;23.53;20.97;;;17.60;70.30;;;;;;4803083;29;20451;-49
2024/03/02 11:59:38;;;;;;;24.57;22.00;;;17.30;72.50;;;;;;4804930;29;20428;-49
2024/03/02 12:02:05;;;;;;;23.80;21.50;;;16.80;74.60;;;;;;4807066;29;20486;-55
2024/03/02 12:04:31;;;;;;;22.37;20.17;;;16.60;79.50;;;;;;4805488;29;20217;-57
2024/03/02 12:07:00;;;;;;;21.80;19.70;;;16.40;79.30;;;;;;4801094;29;20484;-59
2024/03/02 12:09:27;;;;;;;21.97;19.77;;;15.90;82.60;;;;;;4799482;29;20251;-57
2024/03/02 12:12:03;;;;;;;22.97;20.67;;;15.70;84.20;;;;;;4796407;29;20497;-58
2024/03/02 12:14:30;;;;;;;22.67;20.37;;;15.60;86.20;;;;;;4801095;29;20423;-45
2024/03/02 12:16:56;;;;;;;24.40;22.00;;;15.30;88.10;;;;;;4803974;29;20444;-57
2024/03/02 12:19:21;;;;;;;24.13;21.73;;;15.30;91.10;;;;;;4811680;29;21191;-56
2024/03/02 12:21:47;;;;;;;24.60;22.00;;;15.20;90.70;;;;;;4809641;29;20192;-58
2024/03/02 12:24:13;;;;;;;23.40;21.07;;;15.10;91.00;;;;;;4806033;29;20186;-53
2024/03/02 12:26:39;;;;;;;24.10;21.60;;;14.90;90.90;;;;;;4798410;29;20230;-58
2024/03/02 12:29:05;;;;;;;23.70;21.40;;;14.80;92.10;;;;;;4811095;29;20281;-55
2024/03/02 12:31:31;;;;;;;24.27;21.87;;;14.70;92.20;;;;;;4807463;29;20866;-57
2024/03/02 12:33:57;;;;;;;24.70;22.10;;;14.50;91.90;;;;;;4809964;29;20479;-56